sensor_id;sensor_type;location;lat;lon;timestamp;pressure;altitude;pressure_sealevel;temperature;humidity
35918;BME280;22011;59.912;30.300;2023-08-08T00:02:01;100169.06;;;26.02;56.12
35918;BME280;22011;59.912;30.300;2023-08-08T00:04:28;100168.84;;;25.99;56.11
35918;BME280;22011;59.912;30.300;2023-08-08T00:06:56;100172.44;;;25.94;55.69
35918;BME280;22011;59.912;30.300;2023-08-08T00:09:24;100175.72;;;25.91;55.79
35918;BME280;22011;59.912;30.300;2023-08-08T00:11:51;100170.81;;;25.88;56.26
35918;BME280;22011;59.912;30.300;2023-08-08T00:14:19;100176.28;;;25.88;55.90
35918;BME280;22011;59.912;30.300;2023-08-08T00:16:48;100177.38;;;25.87;56.25
35918;BME280;22011;59.912;30.300;2023-08-08T00:19:15;100164.28;;;25.84;56.43
35918;BME280;22011;59.912;30.300;2023-08-08T00:21:43;100182.03;;;25.82;56.50
35918;BME280;22011;59.912;30.300;2023-08-08T00:24:11;100176.03;;;25.80;56.69
35918;BME280;22011;59.912;30.300;2023-08-08T00:26:38;100168.97;;;25.79;56.37
35918;BME280;22011;59.912;30.300;2023-08-08T00:29:06;100174.69;;;25.77;56.62
35918;BME280;22011;59.912;30.300;2023-08-08T00:31:34;100173.34;;;25.74;56.68
35918;BME280;22011;59.912;30.300;2023-08-08T00:34:03;100167.34;;;25.72;56.63
35918;BME280;22011;59.912;30.300;2023-08-08T00:36:31;100158.09;;;25.68;56.48
35918;BME280;22011;59.912;30.300;2023-08-08T00:38:58;100152.09;;;25.66;56.91
35918;BME280;22011;59.912;30.300;2023-08-08T00:41:26;100158.06;;;25.63;56.70
35918;BME280;22011;59.912;30.300;2023-08-08T00:43:54;100146.63;;;25.61;56.74
35918;BME280;22011;59.912;30.300;2023-08-08T00:46:23;100154.28;;;25.59;56.89
35918;BME280;22011;59.912;30.300;2023-08-08T00:48:51;100151.00;;;25.57;57.33
35918;BME280;22011;59.912;30.300;2023-08-08T00:51:21;100165.47;;;25.58;57.35
35918;BME280;22011;59.912;30.300;2023-08-08T00:53:49;100158.94;;;25.54;57.62
35918;BME280;22011;59.912;30.300;2023-08-08T00:56:17;100157.56;;;25.51;57.30
35918;BME280;22011;59.912;30.300;2023-08-08T00:58:45;100151.03;;;25.47;57.46
35918;BME280;22011;59.912;30.300;2023-08-08T01:01:12;100160.03;;;25.48;57.29
35918;BME280;22011;59.912;30.300;2023-08-08T01:03:40;100156.25;;;25.43;58.01
35918;BME280;22011;59.912;30.300;2023-08-08T01:06:16;100152.13;;;25.46;57.80
35918;BME280;22011;59.912;30.300;2023-08-08T01:08:53;100154.03;;;25.51;58.03
35918;BME280;22011;59.912;30.300;2023-08-08T01:11:25;100151.63;;;25.39;57.99
35918;BME280;22011;59.912;30.300;2023-08-08T01:13:55;100148.63;;;25.35;58.23
35918;BME280;22011;59.912;30.300;2023-08-08T01:16:24;100136.66;;;25.31;58.18
35918;BME280;22011;59.912;30.300;2023-08-08T01:18:53;100153.84;;;25.27;58.49
35918;BME280;22011;59.912;30.300;2023-08-08T01:21:21;100144.03;;;25.26;58.65
35918;BME280;22011;59.912;30.300;2023-08-08T01:23:53;100133.56;;;25.53;58.15
35918;BME280;22011;59.912;30.300;2023-08-08T01:26:25;100116.63;;;25.66;57.70
35918;BME280;22011;59.912;30.300;2023-08-08T01:28:53;100107.63;;;25.66;57.24
35918;BME280;22011;59.912;30.300;2023-08-08T01:31:23;100103.53;;;25.68;57.09
35918;BME280;22011;59.912;30.300;2023-08-08T01:33:50;100107.34;;;25.67;56.93
35918;BME280;22011;59.912;30.300;2023-08-08T01:36:22;100109.50;;;25.70;57.58
35918;BME280;22011;59.912;30.300;2023-08-08T01:38:53;100116.34;;;25.68;57.49
35918;BME280;22011;59.912;30.300;2023-08-08T01:41:25;100101.88;;;25.67;57.67
35918;BME280;22011;59.912;30.300;2023-08-08T01:43:53;100107.34;;;25.62;57.43
35918;BME280;22011;59.912;30.300;2023-08-08T01:46:21;100113.63;;;25.58;57.35
35918;BME280;22011;59.912;30.300;2023-08-08T01:48:53;100101.38;;;25.55;57.47
35918;BME280;22011;59.912;30.300;2023-08-08T01:51:21;100102.19;;;25.56;57.18
35918;BME280;22011;59.912;30.300;2023-08-08T01:53:50;100103.00;;;25.56;57.29
35918;BME280;22011;59.912;30.300;2023-08-08T01:56:17;100100.56;;;25.55;57.15
35918;BME280;22011;59.912;30.300;2023-08-08T01:58:47;100104.91;;;25.56;57.65
35918;BME280;22011;59.912;30.300;2023-08-08T02:01:14;100094.41;;;25.19;58.29
35918;BME280;22011;59.912;30.300;2023-08-08T02:03:42;100105.91;;;25.05;59.20
35918;BME280;22011;59.912;30.300;2023-08-08T02:06:11;100099.81;;;25.39;58.09
35918;BME280;22011;59.912;30.300;2023-08-08T02:08:39;100107.41;;;25.47;57.34
35918;BME280;22011;59.912;30.300;2023-08-08T02:11:06;100106.16;;;25.14;58.35
35918;BME280;22011;59.912;30.300;2023-08-08T02:13:34;100113.53;;;25.03;58.87
35918;BME280;22011;59.912;30.300;2023-08-08T02:16:03;100110.00;;;25.03;59.24
35918;BME280;22011;59.912;30.300;2023-08-08T02:18:31;100103.19;;;25.00;58.99
35918;BME280;22011;59.912;30.300;2023-08-08T02:20:58;100105.38;;;24.98;58.87
35918;BME280;22011;59.912;30.300;2023-08-08T02:23:26;100106.44;;;25.07;58.94
35918;BME280;22011;59.912;30.300;2023-08-08T02:25:54;100108.38;;;25.02;59.12
35918;BME280;22011;59.912;30.300;2023-08-08T02:28:21;100107.56;;;25.01;58.99
35918;BME280;22011;59.912;30.300;2023-08-08T02:30:49;100104.00;;;25.01;58.86
35918;BME280;22011;59.912;30.300;2023-08-08T02:33:18;100101.00;;;25.02;59.31
35918;BME280;22011;59.912;30.300;2023-08-08T02:35:45;100092.03;;;25.02;59.28
35918;BME280;22011;59.912;30.300;2023-08-08T02:38:14;100102.03;;;25.22;58.18
35918;BME280;22011;59.912;30.300;2023-08-08T02:40:41;100091.72;;;25.14;58.45
35918;BME280;22011;59.912;30.300;2023-08-08T02:43:10;100091.72;;;25.08;58.42
35918;BME280;22011;59.912;30.300;2023-08-08T02:45:38;100087.09;;;25.04;58.94
35918;BME280;22011;59.912;30.300;2023-08-08T02:48:06;100089.28;;;25.02;59.12
35918;BME280;22011;59.912;30.300;2023-08-08T02:50:35;100084.66;;;25.02;58.98
35918;BME280;22011;59.912;30.300;2023-08-08T02:53:03;100078.88;;;25.24;58.52
35918;BME280;22011;59.912;30.300;2023-08-08T02:55:36;100078.22;;;25.48;57.33
35918;BME280;22011;59.912;30.300;2023-08-08T02:58:04;100071.13;;;25.52;57.14
35918;BME280;22011;59.912;30.300;2023-08-08T03:00:32;100081.88;;;25.18;58.13
35918;BME280;22011;59.912;30.300;2023-08-08T03:03:01;100081.63;;;25.09;58.50
35918;BME280;22011;59.912;30.300;2023-08-08T03:05:30;100087.38;;;25.07;58.52
35918;BME280;22011;59.912;30.300;2023-08-08T03:07:59;100089.00;;;25.03;58.48
35918;BME280;22011;59.912;30.300;2023-08-08T03:10:27;100092.47;;;25.29;58.11
35918;BME280;22011;59.912;30.300;2023-08-08T03:12:55;100088.19;;;25.08;58.71
35918;BME280;22011;59.912;30.300;2023-08-08T03:15:23;100087.91;;;25.09;58.54
35918;BME280;22011;59.912;30.300;2023-08-08T03:17:51;100084.09;;;25.10;58.56
35918;BME280;22011;59.912;30.300;2023-08-08T03:20:21;100084.63;;;25.13;58.41
35918;BME280;22011;59.912;30.300;2023-08-08T03:22:49;100090.09;;;25.13;58.19
35918;BME280;22011;59.912;30.300;2023-08-08T03:25:18;100091.72;;;25.14;58.25
35918;BME280;22011;59.912;30.300;2023-08-08T03:27:46;100084.63;;;25.13;58.05
35918;BME280;22011;59.912;30.300;2023-08-08T03:30:15;100087.91;;;25.15;58.13
35918;BME280;22011;59.912;30.300;2023-08-08T03:32:44;100096.63;;;25.17;58.05
35918;BME280;22011;59.912;30.300;2023-08-08T03:35:11;100100.13;;;25.22;57.58
35918;BME280;22011;59.912;30.300;2023-08-08T03:37:41;100091.94;;;25.27;57.44
35918;BME280;22011;59.912;30.300;2023-08-08T03:40:10;100091.13;;;25.27;57.58
35918;BME280;22011;59.912;30.300;2023-08-08T03:42:41;100093.69;;;25.62;56.57
35918;BME280;22011;59.912;30.300;2023-08-08T03:45:09;100089.34;;;25.66;56.17
35918;BME280;22011;59.912;30.300;2023-08-08T03:47:37;100082.25;;;25.65;56.34
35918;BME280;22011;59.912;30.300;2023-08-08T03:50:06;100093.97;;;25.71;56.51
35918;BME280;22011;59.912;30.300;2023-08-08T03:52:35;100088.53;;;25.66;56.57
35918;BME280;22011;59.912;30.300;2023-08-08T03:55:04;100082.81;;;25.57;56.72
35918;BME280;22011;59.912;30.300;2023-08-08T03:57:32;100081.00;;;25.37;57.22
35918;BME280;22011;59.912;30.300;2023-08-08T04:00:01;100086.13;;;25.49;57.00
35918;BME280;22011;59.912;30.300;2023-08-08T04:02:39;100101.59;;;25.64;56.77
35918;BME280;22011;59.912;30.300;2023-08-08T04:05:07;100078.81;;;25.34;57.20
35918;BME280;22011;59.912;30.300;2023-08-08T04:07:35;100074.88;;;25.61;56.68
35918;BME280;22011;59.912;30.300;2023-08-08T04:10:04;100071.66;;;25.49;56.53
35918;BME280;22011;59.912;30.300;2023-08-08T04:12:32;100077.69;;;25.46;56.86
35918;BME280;22011;59.912;30.300;2023-08-08T04:15:01;100074.13;;;25.50;57.29
35918;BME280;22011;59.912;30.300;2023-08-08T04:17:29;100077.94;;;25.49;56.68
35918;BME280;22011;59.912;30.300;2023-08-08T04:19:56;100083.75;;;25.32;57.37
35918;BME280;22011;59.912;30.300;2023-08-08T04:22:24;100091.34;;;25.40;57.01
35918;BME280;22011;59.912;30.300;2023-08-08T04:24:52;100093.75;;;25.52;56.85
35918;BME280;22011;59.912;30.300;2023-08-08T04:27:19;100075.28;;;25.34;57.44
35918;BME280;22011;59.912;30.300;2023-08-08T04:29:47;100074.75;;;25.27;57.29
35918;BME280;22011;59.912;30.300;2023-08-08T04:32:16;100085.41;;;25.23;57.59
35918;BME280;22011;59.912;30.300;2023-08-08T04:34:44;100086.53;;;25.17;57.65
35918;BME280;22011;59.912;30.300;2023-08-08T04:37:11;100089.50;;;25.21;57.80
35918;BME280;22011;59.912;30.300;2023-08-08T04:39:39;100094.88;;;25.41;57.09
35918;BME280;22011;59.912;30.300;2023-08-08T04:42:06;100094.31;;;25.49;56.82
35918;BME280;22011;59.912;30.300;2023-08-08T04:44:34;100108.47;;;25.51;57.08
35918;BME280;22011;59.912;30.300;2023-08-08T04:47:02;100120.22;;;25.52;56.90
35918;BME280;22011;59.912;30.300;2023-08-08T04:49:31;100112.00;;;25.57;57.01
35918;BME280;22011;59.912;30.300;2023-08-08T04:51:58;100113.34;;;25.59;56.34
35918;BME280;22011;59.912;30.300;2023-08-08T04:54:26;100128.09;;;25.58;56.48
35918;BME280;22011;59.912;30.300;2023-08-08T04:56:54;100124.59;;;25.48;56.51
35918;BME280;22011;59.912;30.300;2023-08-08T04:59:21;100133.03;;;25.51;56.92
35918;BME280;22011;59.912;30.300;2023-08-08T05:01:49;100125.94;;;25.50;56.87
35918;BME280;22011;59.912;30.300;2023-08-08T05:04:17;100134.94;;;25.51;58.24
35918;BME280;22011;59.912;30.300;2023-08-08T05:06:46;100133.09;;;25.31;60.12
35918;BME280;22011;59.912;30.300;2023-08-08T05:09:14;100141.34;;;25.10;60.85
35918;BME280;22011;59.912;30.300;2023-08-08T05:11:42;100145.16;;;24.99;62.55
35918;BME280;22011;59.912;30.300;2023-08-08T05:14:09;100146.81;;;24.95;64.28
35918;BME280;22011;59.912;30.300;2023-08-08T05:16:37;100167.00;;;24.79;63.23
35918;BME280;22011;59.912;30.300;2023-08-08T05:19:05;100173.53;;;24.78;64.00
35918;BME280;22011;59.912;30.300;2023-08-08T05:21:34;100167.53;;;24.56;65.58
35918;BME280;22011;59.912;30.300;2023-08-08T05:24:03;100195.56;;;24.46;67.03
35918;BME280;22011;59.912;30.300;2023-08-08T05:26:31;100202.91;;;24.30;67.17
35918;BME280;22011;59.912;30.300;2023-08-08T05:28:58;100212.38;;;24.18;67.81
35918;BME280;22011;59.912;30.300;2023-08-08T05:31:26;100222.13;;;24.03;69.51
35918;BME280;22011;59.912;30.300;2023-08-08T05:33:54;100226.72;;;23.98;69.35
35918;BME280;22011;59.912;30.300;2023-08-08T05:36:21;100227.78;;;23.87;70.29
35918;BME280;22011;59.912;30.300;2023-08-08T05:38:49;100230.41;;;23.66;71.33
35918;BME280;22011;59.912;30.300;2023-08-08T05:41:18;100215.72;;;23.67;72.03
35918;BME280;22011;59.912;30.300;2023-08-08T05:43:46;100220.91;;;23.69;72.39
35918;BME280;22011;59.912;30.300;2023-08-08T05:46:14;100213.31;;;23.76;72.12
35918;BME280;22011;59.912;30.300;2023-08-08T05:48:41;100219.59;;;23.76;72.26
35918;BME280;22011;59.912;30.300;2023-08-08T05:51:09;100207.06;;;23.75;72.72
35918;BME280;22011;59.912;30.300;2023-08-08T05:53:36;100206.81;;;23.82;72.85
35918;BME280;22011;59.912;30.300;2023-08-08T05:56:04;100202.44;;;23.76;72.76
35918;BME280;22011;59.912;30.300;2023-08-08T05:58:33;100207.66;;;23.88;72.18
35918;BME280;22011;59.912;30.300;2023-08-08T06:01:03;100207.13;;;23.96;71.71
35918;BME280;22011;59.912;30.300;2023-08-08T06:03:32;100209.56;;;23.87;72.60
35918;BME280;22011;59.912;30.300;2023-08-08T06:06:00;100209.56;;;23.97;73.32
35918;BME280;22011;59.912;30.300;2023-08-08T06:08:27;100209.59;;;24.02;72.56
35918;BME280;22011;59.912;30.300;2023-08-08T06:10:55;100219.69;;;24.12;73.01
35918;BME280;22011;59.912;30.300;2023-08-08T06:13:23;100230.34;;;24.24;71.93
35918;BME280;22011;59.912;30.300;2023-08-08T06:15:52;100217.31;;;24.26;72.00
35918;BME280;22011;59.912;30.300;2023-08-08T06:18:19;100231.13;;;24.09;72.60
35918;BME280;22011;59.912;30.300;2023-08-08T06:20:47;100225.72;;;24.24;71.03
35918;BME280;22011;59.912;30.300;2023-08-08T06:23:14;100225.81;;;24.50;70.13
35918;BME280;22011;59.912;30.300;2023-08-08T06:25:42;100216.28;;;24.62;69.52
35918;BME280;22011;59.912;30.300;2023-08-08T06:28:09;100230.72;;;24.58;70.59
35918;BME280;22011;59.912;30.300;2023-08-08T06:30:37;100217.66;;;24.60;69.93
35918;BME280;22011;59.912;30.300;2023-08-08T06:33:06;100242.66;;;24.36;70.21
35918;BME280;22011;59.912;30.300;2023-08-08T06:35:34;100246.41;;;24.25;71.72
35918;BME280;22011;59.912;30.300;2023-08-08T06:38:02;100256.72;;;24.13;71.21
35918;BME280;22011;59.912;30.300;2023-08-08T06:40:30;100249.88;;;24.05;71.75
35918;BME280;22011;59.912;30.300;2023-08-08T06:42:58;100242.31;;;24.18;71.92
35918;BME280;22011;59.912;30.300;2023-08-08T06:45:25;100245.56;;;24.20;71.54
35918;BME280;22011;59.912;30.300;2023-08-08T06:47:53;100243.75;;;24.40;70.21
35918;BME280;22011;59.912;30.300;2023-08-08T06:50:22;100246.25;;;24.52;70.34
35918;BME280;22011;59.912;30.300;2023-08-08T06:52:50;100257.16;;;24.57;69.28
35918;BME280;22011;59.912;30.300;2023-08-08T06:55:18;100249.00;;;24.67;69.27
35918;BME280;22011;59.912;30.300;2023-08-08T06:57:46;100267.81;;;24.84;68.70
35918;BME280;22011;59.912;30.300;2023-08-08T07:00:14;100262.34;;;24.84;68.98
35918;BME280;22011;59.912;30.300;2023-08-08T07:02:42;100277.59;;;24.80;69.28
35918;BME280;22011;59.912;30.300;2023-08-08T07:05:10;100268.63;;;24.80;68.54
35918;BME280;22011;59.912;30.300;2023-08-08T07:07:39;100277.59;;;24.80;68.33
35918;BME280;22011;59.912;30.300;2023-08-08T07:10:07;100288.78;;;24.73;68.28
35918;BME280;22011;59.912;30.300;2023-08-08T07:12:35;100285.78;;;24.70;67.98
35918;BME280;22011;59.912;30.300;2023-08-08T07:15:04;100293.97;;;24.80;67.90
35918;BME280;22011;59.912;30.300;2023-08-08T07:17:32;100301.59;;;24.78;67.78
35918;BME280;22011;59.912;30.300;2023-08-08T07:20:00;100301.56;;;24.68;67.08
35918;BME280;22011;59.912;30.300;2023-08-08T07:22:28;100292.56;;;24.62;67.49
35918;BME280;22011;59.912;30.300;2023-08-08T07:24:57;100303.75;;;24.66;67.34
35918;BME280;22011;59.912;30.300;2023-08-08T07:27:26;100299.38;;;24.65;67.13
35918;BME280;22011;59.912;30.300;2023-08-08T07:29:54;100313.81;;;24.65;67.13
35918;BME280;22011;59.912;30.300;2023-08-08T07:32:21;100315.50;;;24.92;65.65
35918;BME280;22011;59.912;30.300;2023-08-08T07:34:49;100310.59;;;24.94;65.50
35918;BME280;22011;59.912;30.300;2023-08-08T07:37:17;100305.16;;;24.99;64.76
35918;BME280;22011;59.912;30.300;2023-08-08T07:39:44;100314.16;;;25.20;64.68
35918;BME280;22011;59.912;30.300;2023-08-08T07:42:13;100306.53;;;25.32;64.86
35918;BME280;22011;59.912;30.300;2023-08-08T07:44:41;100319.88;;;25.43;64.13
35918;BME280;22011;59.912;30.300;2023-08-08T07:47:09;100317.44;;;25.17;64.13
35918;BME280;22011;59.912;30.300;2023-08-08T07:49:36;100320.69;;;25.24;63.31
35918;BME280;22011;59.912;30.300;2023-08-08T07:52:05;100325.34;;;25.23;64.07
35918;BME280;22011;59.912;30.300;2023-08-08T07:54:33;100312.22;;;25.56;63.00
35918;BME280;22011;59.912;30.300;2023-08-08T07:57:01;100308.41;;;25.57;61.45
35918;BME280;22011;59.912;30.300;2023-08-08T07:59:30;100320.69;;;25.74;61.70
35918;BME280;22011;59.912;30.300;2023-08-08T08:01:57;100305.28;;;26.09;59.42
35918;BME280;22011;59.912;30.300;2023-08-08T08:04:25;100301.91;;;26.27;59.03
35918;BME280;22011;59.912;30.300;2023-08-08T08:06:53;100309.56;;;26.25;58.27
35918;BME280;22011;59.912;30.300;2023-08-08T08:09:20;100322.69;;;26.28;59.26
35918;BME280;22011;59.912;30.300;2023-08-08T08:11:48;100321.63;;;26.14;59.67
35918;BME280;22011;59.912;30.300;2023-08-08T08:14:16;100315.94;;;26.05;59.45
35918;BME280;22011;59.912;30.300;2023-08-08T08:16:45;100321.72;;;25.99;59.49
35918;BME280;22011;59.912;30.300;2023-08-08T08:19:13;100326.13;;;25.90;59.38
35918;BME280;22011;59.912;30.300;2023-08-08T08:21:41;100331.88;;;25.78;57.86
35918;BME280;22011;59.912;30.300;2023-08-08T08:24:09;100346.91;;;25.65;58.90
35918;BME280;22011;59.912;30.300;2023-08-08T08:26:37;100380.16;;;25.37;59.70
35918;BME280;22011;59.912;30.300;2023-08-08T08:29:05;100389.88;;;24.82;60.08
35918;BME280;22011;59.912;30.300;2023-08-08T08:31:32;100394.41;;;24.51;62.17
35918;BME280;22011;59.912;30.300;2023-08-08T08:34:01;100393.31;;;24.05;64.18
35918;BME280;22011;59.912;30.300;2023-08-08T08:36:29;100408.75;;;23.94;64.51
35918;BME280;22011;59.912;30.300;2023-08-08T08:38:56;100416.16;;;24.04;64.34
35918;BME280;22011;59.912;30.300;2023-08-08T08:41:27;100410.38;;;24.32;62.86
35918;BME280;22011;59.912;30.300;2023-08-08T08:43:55;100411.81;;;24.08;63.08
35918;BME280;22011;59.912;30.300;2023-08-08T08:46:25;100413.06;;;24.27;63.25
35918;BME280;22011;59.912;30.300;2023-08-08T08:48:54;100418.25;;;24.91;61.20
35918;BME280;22011;59.912;30.300;2023-08-08T08:51:24;100416.94;;;25.19;60.55
35918;BME280;22011;59.912;30.300;2023-08-08T08:53:52;100423.22;;;25.30;59.27
35918;BME280;22011;59.912;30.300;2023-08-08T08:56:20;100431.97;;;25.37;58.89
35918;BME280;22011;59.912;30.300;2023-08-08T08:58:49;100428.16;;;25.33;58.41
35918;BME280;22011;59.912;30.300;2023-08-08T09:01:17;100430.34;;;25.36;58.33
35918;BME280;22011;59.912;30.300;2023-08-08T09:03:45;100446.16;;;25.54;56.68
35918;BME280;22011;59.912;30.300;2023-08-08T09:06:13;100443.47;;;25.85;55.86
35918;BME280;22011;59.912;30.300;2023-08-08T09:08:43;100447.25;;;25.58;56.04
35918;BME280;22011;59.912;30.300;2023-08-08T09:11:13;100439.13;;;25.84;55.08
35918;BME280;22011;59.912;30.300;2023-08-08T09:13:41;100444.03;;;25.87;54.16
35918;BME280;22011;59.912;30.300;2023-08-08T09:16:08;100451.66;;;25.80;54.89
35918;BME280;22011;59.912;30.300;2023-08-08T09:18:38;100454.13;;;25.81;54.63
35918;BME280;22011;59.912;30.300;2023-08-08T09:21:06;100457.94;;;25.95;54.01
35918;BME280;22011;59.912;30.300;2023-08-08T09:23:33;100469.09;;;26.14;54.80
35918;BME280;22011;59.912;30.300;2023-08-08T09:26:02;100476.78;;;25.87;53.85
35918;BME280;22011;59.912;30.300;2023-08-08T09:28:30;100483.88;;;25.83;53.38
35918;BME280;22011;59.912;30.300;2023-08-08T09:30:58;100486.88;;;25.91;52.45
35918;BME280;22011;59.912;30.300;2023-08-08T09:33:28;100494.75;;;26.44;51.84
35918;BME280;22011;59.912;30.300;2023-08-08T09:35:56;100489.56;;;26.42;49.13
35918;BME280;22011;59.912;30.300;2023-08-08T09:38:24;100492.56;;;26.15;49.34
35918;BME280;22011;59.912;30.300;2023-08-08T09:40:51;100505.13;;;26.01;49.46
35918;BME280;22011;59.912;30.300;2023-08-08T09:43:21;100498.06;;;26.00;50.80
35918;BME280;22011;59.912;30.300;2023-08-08T09:45:48;100493.38;;;26.21;49.20
35918;BME280;22011;59.912;30.300;2023-08-08T09:48:16;100512.78;;;26.09;48.09
35918;BME280;22011;59.912;30.300;2023-08-08T09:50:46;100518.78;;;26.16;48.29
35918;BME280;22011;59.912;30.300;2023-08-08T09:53:15;100534.88;;;26.18;47.77
35918;BME280;22011;59.912;30.300;2023-08-08T09:55:44;100521.25;;;26.13;47.90
35918;BME280;22011;59.912;30.300;2023-08-08T09:58:14;100519.31;;;26.54;47.75
35918;BME280;22011;59.912;30.300;2023-08-08T10:00:43;100525.00;;;26.67;46.62
35918;BME280;22011;59.912;30.300;2023-08-08T10:03:11;100533.81;;;26.34;47.19
35918;BME280;22011;59.912;30.300;2023-08-08T10:05:39;100525.28;;;26.71;47.60
35918;BME280;22011;59.912;30.300;2023-08-08T10:08:06;100524.41;;;26.81;44.59
35918;BME280;22011;59.912;30.300;2023-08-08T10:10:34;100533.16;;;26.83;45.88
35918;BME280;22011;59.912;30.300;2023-08-08T10:13:03;100526.34;;;26.80;45.95
35918;BME280;22011;59.912;30.300;2023-08-08T10:15:32;100551.00;;;26.45;46.68
35918;BME280;22011;59.912;30.300;2023-08-08T10:18:06;100530.78;;;26.56;45.99
35918;BME280;22011;59.912;30.300;2023-08-08T10:20:35;100540.59;;;26.57;46.70
35918;BME280;22011;59.912;30.300;2023-08-08T10:23:03;100532.22;;;27.18;46.13
35918;BME280;22011;59.912;30.300;2023-08-08T10:25:31;100552.91;;;26.54;46.79
35918;BME280;22011;59.912;30.300;2023-08-08T10:28:03;100546.06;;;26.67;46.32
35918;BME280;22011;59.912;30.300;2023-08-08T10:30:42;100547.16;;;26.61;46.10
35918;BME280;22011;59.912;30.300;2023-08-08T10:33:17;100548.78;;;26.67;45.95
35918;BME280;22011;59.912;30.300;2023-08-08T10:35:56;100554.50;;;26.76;46.00
35918;BME280;22011;59.912;30.300;2023-08-08T10:38:25;100558.66;;;26.48;45.69
35918;BME280;22011;59.912;30.300;2023-08-08T10:40:56;100564.94;;;26.48;45.58
35918;BME280;22011;59.912;30.300;2023-08-08T10:43:26;100553.72;;;26.65;46.00
35918;BME280;22011;59.912;30.300;2023-08-08T10:45:57;100570.06;;;26.80;45.42
35918;BME280;22011;59.912;30.300;2023-08-08T10:48:27;100568.19;;;26.60;45.53
35918;BME280;22011;59.912;30.300;2023-08-08T10:50:55;100571.13;;;26.99;45.45
35918;BME280;22011;59.912;30.300;2023-08-08T10:53:24;100564.09;;;26.58;44.91
35918;BME280;22011;59.912;30.300;2023-08-08T10:55:58;100576.94;;;26.62;45.48
35918;BME280;22011;59.912;30.300;2023-08-08T10:58:36;100574.44;;;26.86;45.94
35918;BME280;22011;59.912;30.300;2023-08-08T11:01:04;100591.13;;;26.75;44.41
35918;BME280;22011;59.912;30.300;2023-08-08T11:03:36;100588.66;;;26.78;44.59
35918;BME280;22011;59.912;30.300;2023-08-08T11:06:06;100589.78;;;26.67;44.12
35918;BME280;22011;59.912;30.300;2023-08-08T11:08:34;100597.44;;;26.55;43.92
35918;BME280;22011;59.912;30.300;2023-08-08T11:11:05;100603.44;;;26.77;43.35
35918;BME280;22011;59.912;30.300;2023-08-08T11:13:32;100596.84;;;27.03;42.75
35918;BME280;22011;59.912;30.300;2023-08-08T11:16:00;100605.19;;;27.27;42.22
35918;BME280;22011;59.912;30.300;2023-08-08T11:18:29;100606.56;;;27.30;41.35
35918;BME280;22011;59.912;30.300;2023-08-08T11:20:58;100611.44;;;27.38;42.27
35918;BME280;22011;59.912;30.300;2023-08-08T11:23:25;100601.69;;;27.12;42.80
35918;BME280;22011;59.912;30.300;2023-08-08T11:25:54;100622.28;;;26.99;41.68
35918;BME280;22011;59.912;30.300;2023-08-08T11:28:22;100617.63;;;26.84;43.20
35918;BME280;22011;59.912;30.300;2023-08-08T11:30:50;100611.59;;;26.92;44.45
35918;BME280;22011;59.912;30.300;2023-08-08T11:33:18;100610.72;;;27.07;43.39
35918;BME280;22011;59.912;30.300;2023-08-08T11:35:46;100606.56;;;27.25;41.43
35918;BME280;22011;59.912;30.300;2023-08-08T11:38:17;100611.47;;;27.28;42.39
35918;BME280;22011;59.912;30.300;2023-08-08T11:40:45;100620.28;;;27.15;41.17
35918;BME280;22011;59.912;30.300;2023-08-08T11:43:12;100619.75;;;27.13;41.18
35918;BME280;22011;59.912;30.300;2023-08-08T11:45:42;100627.38;;;27.21;39.63
35918;BME280;22011;59.912;30.300;2023-08-08T11:48:10;100623.03;;;27.15;41.11
35918;BME280;22011;59.912;30.300;2023-08-08T11:50:37;100622.47;;;27.18;41.15
35918;BME280;22011;59.912;30.300;2023-08-08T11:53:08;100617.78;;;27.28;40.21
35918;BME280;22011;59.912;30.300;2023-08-08T11:55:37;100624.03;;;27.39;39.82
35918;BME280;22011;59.912;30.300;2023-08-08T11:58:05;100626.75;;;27.44;40.50
35918;BME280;22011;59.912;30.300;2023-08-08T12:00:33;100628.69;;;27.39;40.63
35918;BME280;22011;59.912;30.300;2023-08-08T12:03:02;100630.06;;;27.31;40.59
35918;BME280;22011;59.912;30.300;2023-08-08T12:05:36;100648.31;;;27.51;40.30
35918;BME280;22011;59.912;30.300;2023-08-08T12:08:05;100641.53;;;27.38;40.24
35918;BME280;22011;59.912;30.300;2023-08-08T12:10:32;100645.97;;;27.19;41.73
35918;BME280;22011;59.912;30.300;2023-08-08T12:13:01;100649.59;;;26.94;39.08
35918;BME280;22011;59.912;30.300;2023-08-08T12:15:29;100638.41;;;26.80;39.93
35918;BME280;22011;59.912;30.300;2023-08-08T12:17:58;100653.19;;;26.74;41.13
35918;BME280;22011;59.912;30.300;2023-08-08T12:20:27;100654.53;;;26.77;40.60
35918;BME280;22011;59.912;30.300;2023-08-08T12:22:55;100653.72;;;26.71;40.64
35918;BME280;22011;59.912;30.300;2023-08-08T12:25:23;100665.75;;;26.60;41.06
35918;BME280;22011;59.912;30.300;2023-08-08T12:27:50;100666.03;;;26.68;42.71
35918;BME280;22011;59.912;30.300;2023-08-08T12:30:20;100670.13;;;26.76;40.87
35918;BME280;22011;59.912;30.300;2023-08-08T12:32:47;100666.81;;;26.89;40.62
35918;BME280;22011;59.912;30.300;2023-08-08T12:35:15;100653.16;;;26.89;40.74
35918;BME280;22011;59.912;30.300;2023-08-08T12:37:43;100653.72;;;26.96;40.53
35918;BME280;22011;59.912;30.300;2023-08-08T12:40:11;100662.41;;;27.14;40.61
35918;BME280;22011;59.912;30.300;2023-08-08T12:42:39;100670.06;;;27.17;39.79
35918;BME280;22011;59.912;30.300;2023-08-08T12:45:07;100666.19;;;27.28;38.57
35918;BME280;22011;59.912;30.300;2023-08-08T12:47:37;100666.44;;;27.42;40.29